Time;durP1;ratioP1;P1;durP2;ratioP2;P2;SDS_P1;SDS_P2;PMS_P1;PMS_P2;Temp;Humidity;BMP_temperature;BMP_pressure;BME280_temperature;BME280_humidity;BME280_pressure;Samples;Min_cycle;Max_cycle;Signal;HPM_P1;HPM_P2
2021/12/22 00:00:00;;;;;;;21.5;38.1;;;;;;;-3.4;74.9;99630;;;;
2021/12/22 00:10:00;;;;;;;21.6;41.5;;;;;;;-3.3;75;99620;;;;
2021/12/22 00:20:00;;;;;;;21.6;41.5;;;;;;;-3.2;75;99630;;;;
2021/12/22 00:30:00;;;;;;;21.6;41.5;;;;;;;-3.2;74.6;99640;;;;
2021/12/22 00:41:00;;;;;;;21.4;38.8;;;;;;;-3.2;74.7;99650;;;;
2021/12/22 00:52:00;;;;;;;21.4;38.8;;;;;;;-3.2;75;99640;;;;
2021/12/22 01:02:00;;;;;;;22.8;42.3;;;;;;;-3.3;74.9;99640;;;;
2021/12/22 01:12:00;;;;;;;22.8;42.3;;;;;;;-3.3;74.8;99650;;;;
2021/12/22 01:23:02;;;;;;;22.8;42.3;;;;;;;-3.4;74.8;99660;;;;
2021/12/22 01:33:00;;;;;;;22;39.9;;;;;;;-3.6;74.9;99660;;;;
2021/12/22 01:44:00;;;;;;;22;39.9;;;;;;;-3.4;74.6;99670;;;;
2021/12/22 01:55:04;;;;;;;22;39.9;;;;;;;-3.3;74.3;99670;;;;
2021/12/22 02:05:00;;;;;;;23.6;42.4;;;;;;;-3.2;74.8;99670;;;;
2021/12/22 02:16:06;;;;;;;23.6;42.4;;;;;;;-3.3;74.4;99670;;;;
2021/12/22 02:26:01;;;;;;;23.6;42.4;;;;;;;-3.2;74.1;99660;;;;
2021/12/22 02:37:09;;;;;;;20.6;34.2;;;;;;;-3.2;74.4;99660;;;;
2021/12/22 02:48:00;;;;;;;20.6;34.2;;;;;;;-3.1;74.3;99660;;;;
2021/12/22 02:58:04;;;;;;;20.6;34.2;;;;;;;-3.1;74.1;99660;;;;
2021/12/22 03:09:00;;;;;;;19.6;30.9;;;;;;;-3.1;74.5;99670;;;;
2021/12/22 03:19:00;;;;;;;19.6;30.9;;;;;;;-3.1;74.5;99660;;;;
2021/12/22 03:30:00;;;;;;;19.8;32.4;;;;;;;-3.2;74.4;99660;;;;
2021/12/22 03:40:00;;;;;;;19.8;32.4;;;;;;;-3.2;74.5;99660;;;;
2021/12/22 03:50:00;;;;;;;19.8;32.4;;;;;;;-3.1;74.3;99670;;;;
2021/12/22 04:00:01;;;;;;;16.8;28;;;;;;;-3.1;74.3;99680;;;;
2021/12/22 04:10:08;;;;;;;16.8;28;;;;;;;-3;74.4;99670;;;;
2021/12/22 04:21:00;;;;;;;16.8;28;;;;;;;-3;74.6;99670;;;;
2021/12/22 04:31:00;;;;;;;16.8;28.8;;;;;;;-2.8;74.9;99680;;;;
2021/12/22 04:41:00;;;;;;;16.8;28.8;;;;;;;-2.8;75.8;99690;;;;
2021/12/22 04:51:00;;;;;;;16.8;28.8;;;;;;;-2.8;76.2;99690;;;;
2021/12/22 05:02:00;;;;;;;19;30.8;;;;;;;-2.8;77.6;99690;;;;
2021/12/22 05:13:00;;;;;;;19;30.8;;;;;;;-2.7;77.5;99690;;;;
2021/12/22 05:24:00;;;;;;;19;30.8;;;;;;;-2.6;77.8;99700;;;;
2021/12/22 05:34:00;;;;;;;18;28.4;;;;;;;-2.6;78;99710;;;;
2021/12/22 05:45:00;;;;;;;18;28.4;;;;;;;-2.6;77.9;99710;;;;
2021/12/22 05:56:00;;;;;;;18;28.4;;;;;;;-2.6;78.2;99720;;;;
2021/12/22 06:07:00;;;;;;;21;33.3;;;;;;;-2.7;78.5;99740;;;;
2021/12/22 06:17:00;;;;;;;21;33.3;;;;;;;-2.6;78.4;99740;;;;
2021/12/22 06:28:00;;;;;;;21;33.3;;;;;;;-2.7;78.7;99760;;;;
2021/12/22 06:39:00;;;;;;;27.8;51;;;;;;;-2.7;78.6;99770;;;;
2021/12/22 06:49:00;;;;;;;27.8;51;;;;;;;-2.8;78.9;99790;;;;
2021/12/22 07:00:03;;;;;;;29.4;45.8;;;;;;;-2.9;79.1;99800;;;;
2021/12/22 07:10:00;;;;;;;29.4;45.8;;;;;;;-2.6;79.2;99810;;;;
2021/12/22 07:21:00;;;;;;;29.4;45.8;;;;;;;-2.5;78.8;99830;;;;
2021/12/22 07:31:00;;;;;;;32.5;52.7;;;;;;;-2.2;78.4;99830;;;;
2021/12/22 07:42:00;;;;;;;32.5;52.7;;;;;;;-2;77.7;99840;;;;
2021/12/22 07:52:00;;;;;;;32.5;52.7;;;;;;;-1.8;77.1;99850;;;;
2021/12/22 08:03:00;;;;;;;31.7;52.8;;;;;;;-1.6;76.3;99860;;;;
2021/12/22 08:14:00;;;;;;;31.7;52.8;;;;;;;-1.3;75.8;99860;;;;
2021/12/22 08:24:00;;;;;;;31.7;52.8;;;;;;;-1.1;75.2;99860;;;;
2021/12/22 08:35:02;;;;;;;34.3;60.7;;;;;;;-1;74.2;99860;;;;
2021/12/22 08:45:00;;;;;;;34.3;60.7;;;;;;;-0.8;74.1;99870;;;;
2021/12/22 08:55:00;;;;;;;34.3;60.7;;;;;;;-0.6;73.3;99880;;;;
2021/12/22 09:05:00;;;;;;;39.4;61.1;;;;;;;-0.5;73.4;99880;;;;
2021/12/22 09:16:00;;;;;;;39.4;61.1;;;;;;;-0.8;73.6;99880;;;;
2021/12/22 09:26:00;;;;;;;39.4;61.1;;;;;;;-0.7;73.4;99890;;;;
2021/12/22 09:37:00;;;;;;;39.8;62;;;;;;;-0.4;71.9;99890;;;;
2021/12/22 09:47:00;;;;;;;39.8;62;;;;;;;-0.7;70.4;99890;;;;
2021/12/22 09:58:00;;;;;;;39.8;62;;;;;;;-0.8;69.9;99890;;;;
2021/12/22 10:08:00;;;;;;;33.9;47.2;;;;;;;-0.4;69.2;99890;;;;
2021/12/22 10:19:00;;;;;;;33.9;47.2;;;;;;;-0.1;68.1;99890;;;;
2021/12/22 10:30:00;;;;;;;24.4;34;;;;;;;0;66.5;99880;;;;
2021/12/22 10:41:00;;;;;;;24.4;34;;;;;;;0;68.2;99880;;;;
2021/12/22 10:51:00;;;;;;;24.4;34;;;;;;;-0.1;68.8;99870;;;;
2021/12/22 11:02:07;;;;;;;34.5;47.9;;;;;;;0;68.8;99860;;;;
2021/12/22 11:12:00;;;;;;;34.5;47.9;;;;;;;-0.1;68.7;99870;;;;
2021/12/22 11:23:02;;;;;;;34.5;47.9;;;;;;;0.4;68;99860;;;;
2021/12/22 11:34:00;;;;;;;38.9;53.6;;;;;;;0.3;65.8;99850;;;;
2021/12/22 11:44:00;;;;;;;38.9;53.6;;;;;;;0.3;67.5;99850;;;;
2021/12/22 11:55:00;;;;;;;38.9;53.6;;;;;;;0.2;67.7;99850;;;;
2021/12/22 12:05:00;;;;;;;45.8;64.4;;;;;;;0.5;67.7;99840;;;;
2021/12/22 12:15:09;;;;;;;45.8;64.4;;;;;;;0.5;66.3;99840;;;;
2021/12/22 12:26:02;;;;;;;45.8;64.4;;;;;;;0.2;65.1;99830;;;;
2021/12/22 12:37:00;;;;;;;28.8;37.1;;;;;;;-0.2;66;99830;;;;
2021/12/22 12:47:00;;;;;;;28.8;37.1;;;;;;;-0.1;65.7;99830;;;;
2021/12/22 12:58:00;;;;;;;22.5;33;;;;;;;-0.2;65.9;99840;;;;
2021/12/22 13:08:00;;;;;;;22.5;33;;;;;;;-0.4;65.2;99840;;;;
2021/12/22 13:18:00;;;;;;;22.5;33;;;;;;;-0.2;64.5;99850;;;;
2021/12/22 13:29:00;;;;;;;15.8;21.5;;;;;;;-0.4;64.7;99840;;;;
2021/12/22 13:39:01;;;;;;;15.8;21.5;;;;;;;-0.8;64.5;99850;;;;
2021/12/22 13:49:00;;;;;;;15.8;21.5;;;;;;;-0.9;64.6;99840;;;;
2021/12/22 14:00:00;;;;;;;19.8;35.2;;;;;;;-1.2;65.3;99860;;;;
2021/12/22 14:10:00;;;;;;;19.8;35.2;;;;;;;-1.3;66;99870;;;;
2021/12/22 14:21:00;;;;;;;19.8;35.2;;;;;;;-1.4;65.8;99860;;;;
2021/12/22 14:31:01;;;;;;;16.8;27.7;;;;;;;-1.5;66;99860;;;;
2021/12/22 14:42:01;;;;;;;16.8;27.7;;;;;;;-1.6;65.5;99860;;;;
2021/12/22 14:53:00;;;;;;;16.8;27.7;;;;;;;-1.7;64.4;99860;;;;
2021/12/22 15:03:00;;;;;;;16.7;32;;;;;;;-1.8;65.7;99860;;;;
2021/12/22 15:13:00;;;;;;;16.7;32;;;;;;;-2.1;66.8;99850;;;;
2021/12/22 15:23:14;;;;;;;16.7;32;;;;;;;-2.3;66.8;99840;;;;
2021/12/22 15:33:14;;;;;;;50.9;106.3;;;;;;;-2.7;67;99840;;;;
2021/12/22 15:43:14;;;;;;;50.9;106.3;;;;;;;-3;67.6;99840;;;;
2021/12/22 15:54:14;;;;;;;50.9;106.3;;;;;;;-3.6;68;99840;;;;
2021/12/22 16:04:14;;;;;;;51.1;99.2;;;;;;;-3.8;69.6;99840;;;;
2021/12/22 16:15:14;;;;;;;51.1;99.2;;;;;;;-4.1;70.9;99850;;;;
2021/12/22 16:26:14;;;;;;;51.1;99.2;;;;;;;-4.3;72.1;99860;;;;
2021/12/22 16:36:14;;;;;;;13.9;28;;;;;;;-4.6;72.2;99860;;;;
2021/12/22 16:46:14;;;;;;;13.9;28;;;;;;;-4.8;73;99860;;;;
2021/12/22 16:56:14;;;;;;;13.9;28;;;;;;;-5.2;73.3;99860;;;;
2021/12/22 17:07:14;;;;;;;20.8;42.1;;;;;;;-5.4;74.2;99860;;;;
2021/12/22 17:18:15;;;;;;;20.8;42.1;;;;;;;-5.4;75.1;99850;;;;
2021/12/22 17:28:14;;;;;;;28.5;52.5;;;;;;;-5.3;74.9;99840;;;;
2021/12/22 17:39:14;;;;;;;28.5;52.5;;;;;;;-5.3;74.8;99850;;;;
2021/12/22 17:49:14;;;;;;;28.5;52.5;;;;;;;-5.5;74.2;99840;;;;
2021/12/22 17:59:14;;;;;;;18.4;33.2;;;;;;;-5.7;74.5;99830;;;;
2021/12/22 18:10:14;;;;;;;18.4;33.2;;;;;;;-5.6;76.2;99820;;;;
2021/12/22 18:21:15;;;;;;;18.4;33.2;;;;;;;-5.2;76.6;99820;;;;
2021/12/22 18:31:14;;;;;;;21;36.9;;;;;;;-5;75.6;99820;;;;
2021/12/22 18:42:14;;;;;;;21;36.9;;;;;;;-4.9;75.2;99820;;;;
2021/12/22 18:53:14;;;;;;;21;36.9;;;;;;;-5;74.6;99820;;;;
2021/12/22 19:04:14;;;;;;;29.9;53.4;;;;;;;-5.1;74.6;99820;;;;
2021/12/22 19:15:15;;;;;;;29.9;53.4;;;;;;;-5.2;75.9;99810;;;;
2021/12/22 19:26:14;;;;;;;29.9;53.4;;;;;;;-5;75.5;99810;;;;
2021/12/22 19:36:14;;;;;;;35.5;67.3;;;;;;;-4.9;75.5;99800;;;;
2021/12/22 19:46:14;;;;;;;35.5;67.3;;;;;;;-5;76;99800;;;;
2021/12/22 19:57:14;;;;;;;32.4;61.7;;;;;;;-4.9;75.9;99800;;;;
2021/12/22 20:08:14;;;;;;;32.4;61.7;;;;;;;-5;75.4;99800;;;;
2021/12/22 20:18:15;;;;;;;32.4;61.7;;;;;;;-5.1;75.6;99790;;;;
2021/12/22 20:28:14;;;;;;;24.6;37.2;;;;;;;-5.1;75.4;99770;;;;
2021/12/22 20:39:14;;;;;;;24.6;37.2;;;;;;;-5.1;75.1;99760;;;;
2021/12/22 20:50:14;;;;;;;24.6;37.2;;;;;;;-5.2;74.8;99760;;;;
2021/12/22 21:00:14;;;;;;;22.4;49.6;;;;;;;-5.2;74.5;99750;;;;
2021/12/22 21:10:14;;;;;;;22.4;49.6;;;;;;;-5.3;74.7;99740;;;;
2021/12/22 21:21:14;;;;;;;22.4;49.6;;;;;;;-5.5;74.7;99740;;;;
2021/12/22 21:31:14;;;;;;;39.3;68.6;;;;;;;-5.6;75;99740;;;;
2021/12/22 21:42:17;;;;;;;39.3;68.6;;;;;;;-5.9;75.6;99720;;;;
2021/12/22 21:53:14;;;;;;;39.3;68.6;;;;;;;-6;76.3;99720;;;;
2021/12/22 22:04:14;;;;;;;30.8;49.8;;;;;;;-6.2;76;99710;;;;
2021/12/22 22:14:14;;;;;;;30.8;49.8;;;;;;;-6.3;75.9;99700;;;;
2021/12/22 22:25:16;;;;;;;30.8;49.8;;;;;;;-6.4;75.8;99680;;;;
2021/12/22 22:35:14;;;;;;;35.4;63.2;;;;;;;-6.4;75.7;99690;;;;
2021/12/22 22:45:14;;;;;;;35.4;63.2;;;;;;;-6.4;75.8;99680;;;;
2021/12/22 22:56:14;;;;;;;33.1;62.7;;;;;;;-6.3;75.6;99680;;;;
2021/12/22 23:06:14;;;;;;;33.1;62.7;;;;;;;-6.2;75.4;99670;;;;
2021/12/22 23:16:14;;;;;;;33.1;62.7;;;;;;;-6;75.7;99670;;;;
2021/12/22 23:27:14;;;;;;;37.6;72.3;;;;;;;-5.8;75.8;99650;;;;
2021/12/22 23:37:15;;;;;;;37.6;72.3;;;;;;;-5.7;75.7;99640;;;;
2021/12/22 23:58:14;;;;;;;41;74.1;;;;;;;-5.6;75.8;99620;;;;
